Kezdőlap
METAR-TAF:

METAR-TAF

Repülőterek :

Csebokszári, Oroszország

földrajzi szélesség: 56-05-24N, földrajzi hosszúság: 047-20-50E, magasság: 171 m

Jelenlegi meteorológiai megfigyelések

A jelentés 43 perccel ezelõtt készült, 02:30 UTC
Dél-délkeleti szél 6 kt
Hőmérséklet -4°C
Páratartalom 93%
Légköri nyomás 1020 hPa
Látótávolság 10 km, vagy több
Szakadozott felhőzet 2900 lábon

METAR: UWKS 120230Z 15003MPS 9999 BKN029 M04/M05 Q1020 R06/450338 NOSIG RMK QFE750

Idő: 06:13 (03:13 UTC)

Előrejelzés

A jelentés 4 órával és 15 perccel ezelõtt készült, 22:58 UTC
Az előrejelzés 12-én 00 óra UTC és 12-én 09 óra UTC között érvényes
Dél-délkeleti szél 6 kt széllökések: 16 kt
Látótávolság: 4000 m
Szakadozott felhőzet 1100 lábon
enyhe havazás, Párásság
12-én 00 óra UTC és 12-én 08 óra UTC között ideiglenes
Látótávolság: 2000 m
Borult 600 lábon
Párásság

TAF: UWKS 112258Z 1200/1209 16003G08MPS 4000 -SN BR BKN011 TEMPO 1200/1208 2000 BR OVC006

Meteorológiai megfigyelések és előrejelzések több, mint 4000 repülőtéren (METAR és TAF jelentéseket).

A térképen piros és sárga pontok jelzik az elérhető meteorológiai állomásokat.

Mozgassa az egeret a pont fölött, hogy megjelenjen az állomás neve.

Azután kattintson az időjárási megfigyelések és előrejelzések megtekintéséhez.

A térkép megváltoztatása: kattintson a fekete keresztel jelölt zöld gombra ráközelítéshez, a vonallal jelölt zöld gombra távolításhoz, vagy a zöld nyilakra a szomszédos térképek eléréséhez.


METAR-TAF: